Airfield :
LOGIN :

Register | Disclaimer

   EN    FR    IT 

 










Legend :    VFR   Marginal VFR   IFR   Intensive IFR   Very Intensive IFR
Visi :
Ceiling :
>= 8 km
>= 3000ft
5 to 8 km
1000 to 3000 ft
1500m to 5 km
500 to 1000 ft
800 to 1500m
200 to 500 ft
< 800m
< 200 ft
Symbols :   Thunderstorms  Fog  Heavy snow  Heavy precipitations  Wind > 20 kt
SIGMETs :     Misc.  Thunderstorms  Icing  Turbulence  Mountain Waves  Volcanic Ashes






- Airport Elevation : 844 ft
- IATA code : OSR


LKMT - Ostrava-Mosnov

CURRENT METAR :
  • 050700Z 21007KT 9999 -RA SCT026 BKN038 16/14 Q0997 TEMPO 4500 RA BKN015

EXPIRED METARs :
  • 050630Z 22009KT 9999 -RA OVC029 16/13 Q0996 TEMPO 4500 RA BKN015
  • 050600Z 22010KT 9999 -RA OVC025 16/13 Q0996 TEMPO 4500 RA BKN015
  • 050530Z 24008KT 9999 OVC027 17/12 Q0996 TEMPO 4500 RA BKN015
  • 050500Z 24006KT 9999 FEW030 OVC035 17/13 Q0996 TEMPO 4500 RA BKN015
  • 050430Z 21007KT 9999 OVC034 17/12 Q0995 NOSIG

TAF TAF LKMT
Valid from the 05 at 06:00 until the 06 at 12:00 UTC


050500Z 0506/0612 21012KT 9999 SCT033
TEMPO 0506/0508 23012G24KT 8000 RA BKN025
TEMPO 0508/0517 23012G22KT 7000 SHRA SCT035CB BKN040
PROB30
TEMPO 0514/0516 4000 TSRA SCT025CB
BECMG 0517/0519 CAVOK



MET'MAP, your aeronautical weather chart ! - Copyright ORBIFLY December 2007 - Disclaimer

ORBIFLY MET'MAP TEAM :

Programming & Development : Alexandra Zaïnal
Concept & original design : Baudouin d'Aumeries
Assistance for programming : Marc-Olivier Méhu
Technical & hardware support : Manuel Goepfert

Contact : metmap@orbifly.com




SOURCES & CREDITS :

   NOAA